• Join FlightAware (Why Join?)
  • Login
  • US Flag 
11:16AM EDT


 

Airport Tracker/Info


-or-


 

Live Flight TrackerFlight Track Log ✈ JBU19 ✈ 09-Jun-2013 ✈ KBTV - KJFK

Flight Track Log - Related Links

Times and Time Zones

All times are in EDT time to prevent confusion due to time zone crossing. See the JBU19 flight status page for this flight to view local times or setup timezone preferences in your user account.

Time Position Orientation Groundspeed Altitude Reporting Facility
EDT Latitude Longitude Course Direction KTS MPH feet Rate Location/Type
06:05AM 44.4406 -73.1292 193° South 169 194 1,900  Level Boston Center
06:06AM 44.3842 -73.1458 192° South 181 208 4,100 2,700 Climbing Boston Center
06:07AM 44.3111 -73.1742 196° South 249 287 7,300 3,420 Climbing Boston Center
06:08AM 44.1567 -73.2663 195° South  Level FlightAware Approximate
06:08AM 44.2400 -73.2050 197° South 274 315 11,000  Level Boston Center
06:09AM 44.0787 -73.2955 195° South  Level FlightAware Approximate
06:09AM 44.1522 -73.2417 197° South 308 354 12,900  Level Boston Center
06:10AM 44.0003 -73.3222 194° South  Level FlightAware Approximate
06:10AM 44.0644 -73.2781 197° South 335 386 16,300  Level Boston Center
06:11AM 43.9217 -73.3483 193° South  Level FlightAware Approximate
06:11AM 43.9725 -73.3169 197° South 342 394 18,500  Level Boston Center
06:12AM 43.8806 -73.3531 196° South 347 399 20,600 2,160 Climbing Boston Center
06:13AM 43.7803 -73.3947 197° South 357 411 22,900 1,920 Climbing Boston Center
06:14AM 43.6797 -73.4361 197° South 365 420 24,500 1,560 Climbing Boston Center
06:15AM 43.5878 -73.4661 193° South 376 433 26,100 1,620 Climbing Boston Center
06:16AM 43.4833 -73.5103 197° South 387 445 27,800 900 Climbing Boston Center
06:17AM 43.3786 -73.5511 196° South 387 445 28,000 60 Climbing Boston Center
06:18AM 43.2719 -73.5950 197° South 392 451 28,000  Level Boston Center
06:19AM 43.1672 -73.6386 197° South 398 458 28,000  Level Boston Center
06:20AM 43.0500 -73.6844 196° South 403 464 28,000  Level Boston Center
06:21AM 42.9411 -73.7278 196° South 403 464 28,000  Level Boston Center
06:22AM 42.8344 -73.7708 196° South 403 464 28,000  Level Boston Center
06:23AM 42.7256 -73.8053 193° South 403 464 28,000  Level Boston Center
06:24AM 42.6089 -73.8111 182° South 403 464 28,000  Level Boston Center
06:25AM 42.4964 -73.8142 181° South 409 471 28,000  Level Boston Center
06:26AM 42.3942 -73.8147 180° South 416 479 28,000  Level Boston Center
06:27AM 42.2878 -73.8153 180° South 405 466 28,000  Level Boston Center
06:28AM 42.1775 -73.8183 181° South 400 460 28,000  Level Boston Center
06:29AM 42.0689 -73.8189 180° South 394 453 28,000 -420 Level Boston Center
06:31AM 41.8561 -73.8678 190° South 418 481 26,900 -900 Descending New York Center
06:32AM 41.7572 -73.9078 197° South 395 455 25,400 -1,560 Descending New York Center
06:33AM 41.6561 -73.9528 198° South 390 449 23,800 -1,500 Descending New York Center
06:34AM 41.5656 -73.9900 197° South 380 437 22,500 -1,440 Descending New York Center
06:35AM 41.4664 -74.0297 197° South 380 437 21,000 -1,320 Descending New York Center
06:36AM 41.3736 -74.0775 201° Southwest 370 426 20,000 -540 Descending New York Center
06:37AM 41.2881 -74.1508 213° Southwest 358 412 20,000 -300 Level New York Center
06:38AM 41.1917 -74.1733 190° South 358 412 19,400 -540 Descending New York Center
06:39AM 41.0672 -74.1561 174° South 371 427 19,000 -240 Descending New York Center
06:40AM 40.9614 -74.1425 174° South 378 435 19,000 -180 Level New York Center
06:41AM 40.9167 -74.1167 156° South 360 414 18,800 -1,020 Descending New York TRACON
06:42AM 40.8333 -74.0833 163° South 339 390 17,600 -1,500 Descending New York TRACON
06:43AM 40.7500 -74.0333 156° South 328 377 16,100 -1,740 Descending New York TRACON
06:44AM 40.6667 -74.0000 163° South 324 373 14,300 -1,680 Descending New York TRACON
06:45AM 40.6000 -73.9667 159° South 324 373 13,000 -1,080 Descending New York TRACON
06:46AM 40.5167 -73.9333 163° South 309 356 12,300 -1,020 Descending New York TRACON
06:46AM 40.4500 -73.9000 159° South 302 348 11,100 -1,440 Descending New York TRACON
06:47AM 40.3833 -73.8333 143° Southeast 296 341 9,800 -1,680 Descending New York TRACON
06:48AM 40.3333 -73.7500 128° Southeast 306 352 8,000 -1,800 Descending New York TRACON
06:49AM 40.2833 -73.6667 128° Southeast 302 348 6,300 -1,620 Descending New York TRACON
06:50AM 40.3167 -73.5833 62° Northeast 295 339 5,000 -900 Descending New York TRACON
06:51AM 40.3667 -73.5333 37° Northeast 235 270 4,700 -660 Descending New York TRACON
06:52AM 40.4167 -73.4833 37° Northeast 230 265 3,800 -840 Descending New York TRACON
06:53AM 40.4667 -73.4667 14° North 192 221 3,200 -420 Descending New York TRACON
06:54AM 40.5167 -73.4667 360° North 172 198 3,000 -120 Descending New York TRACON
06:55AM 40.5333 -73.5333 288° West 163 188 3,000  Level New York TRACON
06:56AM 40.5667 -73.5667 323° Northwest 164 189 3,000 -360 Level New York TRACON
06:57AM 40.5833 -73.6167 294° West 165 190 2,400 -720 Descending New York TRACON
06:58AM 40.6000 -73.6667 294° West 159 183 1,700 -780 Descending New York TRACON
06:59AM 40.6167 -73.7000 303° West 127 146 1,000 -720 Descending New York TRACON
07:00AM 40.6333 -73.7500 294° West 129 148 300 -720 Descending New York TRACON